sensor_id;sensor_type;location;lat;lon;timestamp;P1;durP1;ratioP1;P2;durP2;ratioP2
57111;SDS011;42992;49.084;19.300;2023-03-03T00:00:40;40.38;;;21.23;;
57111;SDS011;42992;49.084;19.300;2023-03-03T00:03:06;45.20;;;21.25;;
57111;SDS011;42992;49.084;19.300;2023-03-03T00:05:32;46.13;;;20.77;;
57111;SDS011;42992;49.084;19.300;2023-03-03T00:07:58;38.72;;;18.75;;
57111;SDS011;42992;49.084;19.300;2023-03-03T00:10:23;38.17;;;18.33;;
57111;SDS011;42992;49.084;19.300;2023-03-03T00:12:49;34.78;;;17.95;;
57111;SDS011;42992;49.084;19.300;2023-03-03T00:15:16;36.67;;;18.73;;
57111;SDS011;42992;49.084;19.300;2023-03-03T00:17:41;32.55;;;17.33;;
57111;SDS011;42992;49.084;19.300;2023-03-03T00:22:50;41.47;;;20.98;;
57111;SDS011;42992;49.084;19.300;2023-03-03T00:25:27;40.10;;;19.63;;
57111;SDS011;42992;49.084;19.300;2023-03-03T00:27:53;38.63;;;19.00;;
57111;SDS011;42992;49.084;19.300;2023-03-03T00:30:27;37.53;;;19.33;;
57111;SDS011;42992;49.084;19.300;2023-03-03T00:32:53;38.17;;;18.75;;
57111;SDS011;42992;49.084;19.300;2023-03-03T00:37:53;30.73;;;16.10;;
57111;SDS011;42992;49.084;19.300;2023-03-03T00:40:23;32.45;;;16.05;;
57111;SDS011;42992;49.084;19.300;2023-03-03T00:42:50;34.15;;;16.63;;
57111;SDS011;42992;49.084;19.300;2023-03-03T00:45:39;34.83;;;16.50;;
57111;SDS011;42992;49.084;19.300;2023-03-03T00:50:50;34.80;;;17.55;;
57111;SDS011;42992;49.084;19.300;2023-03-03T00:53:16;35.17;;;16.90;;
57111;SDS011;42992;49.084;19.300;2023-03-03T00:55:42;37.53;;;17.70;;
57111;SDS011;42992;49.084;19.300;2023-03-03T00:58:08;36.38;;;18.30;;
57111;SDS011;42992;49.084;19.300;2023-03-03T01:00:33;40.63;;;19.65;;
57111;SDS011;42992;49.084;19.300;2023-03-03T01:03:03;43.45;;;19.70;;
57111;SDS011;42992;49.084;19.300;2023-03-03T01:05:28;44.70;;;20.25;;
57111;SDS011;42992;49.084;19.300;2023-03-03T01:07:54;43.20;;;21.15;;
57111;SDS011;42992;49.084;19.300;2023-03-03T01:10:19;37.78;;;17.55;;
57111;SDS011;42992;49.084;19.300;2023-03-03T01:12:44;35.10;;;15.48;;
57111;SDS011;42992;49.084;19.300;2023-03-03T01:15:10;31.02;;;15.43;;
57111;SDS011;42992;49.084;19.300;2023-03-03T01:17:36;33.05;;;14.88;;
57111;SDS011;42992;49.084;19.300;2023-03-03T01:20:04;34.10;;;16.48;;
57111;SDS011;42992;49.084;19.300;2023-03-03T01:22:29;35.65;;;15.50;;
57111;SDS011;42992;49.084;19.300;2023-03-03T01:24:54;29.77;;;15.23;;
57111;SDS011;42992;49.084;19.300;2023-03-03T01:27:19;35.75;;;16.10;;
57111;SDS011;42992;49.084;19.300;2023-03-03T01:29:45;30.90;;;15.18;;
57111;SDS011;42992;49.084;19.300;2023-03-03T01:32:10;33.97;;;16.48;;
57111;SDS011;42992;49.084;19.300;2023-03-03T01:34:35;30.75;;;15.30;;
57111;SDS011;42992;49.084;19.300;2023-03-03T01:37:01;35.88;;;15.25;;
57111;SDS011;42992;49.084;19.300;2023-03-03T01:39:26;30.58;;;14.95;;
57111;SDS011;42992;49.084;19.300;2023-03-03T01:41:51;28.80;;;14.85;;
57111;SDS011;42992;49.084;19.300;2023-03-03T01:44:16;32.20;;;15.43;;
57111;SDS011;42992;49.084;19.300;2023-03-03T01:49:50;36.17;;;15.48;;
57111;SDS011;42992;49.084;19.300;2023-03-03T01:52:00;24.67;;;13.70;;
57111;SDS011;42992;49.084;19.300;2023-03-03T01:54:28;28.42;;;14.27;;
57111;SDS011;42992;49.084;19.300;2023-03-03T01:56:54;25.98;;;13.48;;
57111;SDS011;42992;49.084;19.300;2023-03-03T01:59:26;27.25;;;12.90;;
57111;SDS011;42992;49.084;19.300;2023-03-03T02:01:52;28.52;;;14.07;;
57111;SDS011;42992;49.084;19.300;2023-03-03T02:04:18;24.33;;;13.10;;
57111;SDS011;42992;49.084;19.300;2023-03-03T02:06:47;25.67;;;13.20;;
57111;SDS011;42992;49.084;19.300;2023-03-03T02:12:00;27.20;;;12.30;;
57111;SDS011;42992;49.084;19.300;2023-03-03T02:14:26;26.85;;;12.02;;
57111;SDS011;42992;49.084;19.300;2023-03-03T02:16:52;28.15;;;13.07;;
57111;SDS011;42992;49.084;19.300;2023-03-03T02:19:20;29.00;;;13.25;;
57111;SDS011;42992;49.084;19.300;2023-03-03T02:21:48;25.55;;;13.13;;
57111;SDS011;42992;49.084;19.300;2023-03-03T02:26:39;31.63;;;14.27;;
57111;SDS011;42992;49.084;19.300;2023-03-03T02:29:05;30.08;;;14.00;;
57111;SDS011;42992;49.084;19.300;2023-03-03T02:31:31;35.13;;;15.45;;
57111;SDS011;42992;49.084;19.300;2023-03-03T02:33:57;31.25;;;15.45;;
57111;SDS011;42992;49.084;19.300;2023-03-03T02:36:26;33.28;;;16.35;;
57111;SDS011;42992;49.084;19.300;2023-03-03T02:46:34;36.05;;;17.65;;
57111;SDS011;42992;49.084;19.300;2023-03-03T02:48:59;35.17;;;16.95;;
57111;SDS011;42992;49.084;19.300;2023-03-03T02:51:25;32.08;;;15.32;;
57111;SDS011;42992;49.084;19.300;2023-03-03T02:53:50;34.08;;;18.08;;
57111;SDS011;42992;49.084;19.300;2023-03-03T02:56:15;28.05;;;13.75;;
57111;SDS011;42992;49.084;19.300;2023-03-03T02:58:40;28.35;;;13.18;;
57111;SDS011;42992;49.084;19.300;2023-03-03T03:01:06;30.20;;;14.07;;
57111;SDS011;42992;49.084;19.300;2023-03-03T03:03:31;28.17;;;13.73;;
57111;SDS011;42992;49.084;19.300;2023-03-03T03:05:57;30.77;;;13.73;;
57111;SDS011;42992;49.084;19.300;2023-03-03T03:08:22;24.45;;;12.38;;
57111;SDS011;42992;49.084;19.300;2023-03-03T03:10:47;25.17;;;13.05;;
57111;SDS011;42992;49.084;19.300;2023-03-03T03:13:14;32.63;;;14.50;;
57111;SDS011;42992;49.084;19.300;2023-03-03T03:15:39;30.05;;;14.25;;
57111;SDS011;42992;49.084;19.300;2023-03-03T03:18:04;32.42;;;15.80;;
57111;SDS011;42992;49.084;19.300;2023-03-03T03:20:31;29.27;;;14.20;;
57111;SDS011;42992;49.084;19.300;2023-03-03T03:22:56;28.77;;;13.73;;
57111;SDS011;42992;49.084;19.300;2023-03-03T03:25:21;27.92;;;12.98;;
57111;SDS011;42992;49.084;19.300;2023-03-03T03:27:47;23.58;;;12.25;;
57111;SDS011;42992;49.084;19.300;2023-03-03T03:30:12;29.55;;;11.73;;
57111;SDS011;42992;49.084;19.300;2023-03-03T03:32:37;25.88;;;13.23;;
57111;SDS011;42992;49.084;19.300;2023-03-03T03:35:03;27.73;;;12.20;;
57111;SDS011;42992;49.084;19.300;2023-03-03T03:37:28;24.42;;;11.43;;
57111;SDS011;42992;49.084;19.300;2023-03-03T03:39:53;29.77;;;12.52;;
57111;SDS011;42992;49.084;19.300;2023-03-03T03:42:19;24.50;;;11.90;;
57111;SDS011;42992;49.084;19.300;2023-03-03T03:44:44;29.08;;;13.07;;
57111;SDS011;42992;49.084;19.300;2023-03-03T03:47:09;35.13;;;13.38;;
57111;SDS011;42992;49.084;19.300;2023-03-03T03:49:34;26.85;;;12.43;;
57111;SDS011;42992;49.084;19.300;2023-03-03T03:52:00;27.15;;;13.75;;
57111;SDS011;42992;49.084;19.300;2023-03-03T03:54:26;27.17;;;13.48;;
57111;SDS011;42992;49.084;19.300;2023-03-03T03:56:51;35.10;;;13.20;;
57111;SDS011;42992;49.084;19.300;2023-03-03T03:59:18;27.17;;;13.02;;
57111;SDS011;42992;49.084;19.300;2023-03-03T04:01:43;24.10;;;12.52;;
57111;SDS011;42992;49.084;19.300;2023-03-03T04:04:08;23.25;;;12.60;;
57111;SDS011;42992;49.084;19.300;2023-03-03T04:06:34;26.00;;;12.27;;
57111;SDS011;42992;49.084;19.300;2023-03-03T04:08:59;31.90;;;16.00;;
57111;SDS011;42992;49.084;19.300;2023-03-03T04:11:24;32.20;;;15.73;;
57111;SDS011;42992;49.084;19.300;2023-03-03T04:13:49;23.55;;;13.38;;
57111;SDS011;42992;49.084;19.300;2023-03-03T04:16:15;32.63;;;13.95;;
57111;SDS011;42992;49.084;19.300;2023-03-03T04:18:41;30.25;;;13.95;;
57111;SDS011;42992;49.084;19.300;2023-03-03T04:21:10;28.27;;;14.00;;
57111;SDS011;42992;49.084;19.300;2023-03-03T04:23:35;29.27;;;13.75;;
57111;SDS011;42992;49.084;19.300;2023-03-03T04:26:00;26.95;;;12.32;;
57111;SDS011;42992;49.084;19.300;2023-03-03T04:28:26;26.10;;;12.38;;
57111;SDS011;42992;49.084;19.300;2023-03-03T04:30:51;26.35;;;12.77;;
57111;SDS011;42992;49.084;19.300;2023-03-03T04:33:16;38.15;;;17.15;;
57111;SDS011;42992;49.084;19.300;2023-03-03T04:35:41;30.73;;;16.98;;
57111;SDS011;42992;49.084;19.300;2023-03-03T04:38:07;42.63;;;17.50;;
57111;SDS011;42992;49.084;19.300;2023-03-03T04:40:32;42.15;;;17.02;;
57111;SDS011;42992;49.084;19.300;2023-03-03T04:42:57;186.70;;;21.38;;
57111;SDS011;42992;49.084;19.300;2023-03-03T04:45:23;37.15;;;16.17;;
57111;SDS011;42992;49.084;19.300;2023-03-03T04:47:48;37.72;;;15.38;;
57111;SDS011;42992;49.084;19.300;2023-03-03T04:50:13;36.15;;;17.23;;
57111;SDS011;42992;49.084;19.300;2023-03-03T04:52:38;33.45;;;16.20;;
57111;SDS011;42992;49.084;19.300;2023-03-03T04:55:04;35.28;;;16.23;;
57111;SDS011;42992;49.084;19.300;2023-03-03T04:57:29;31.88;;;16.30;;
57111;SDS011;42992;49.084;19.300;2023-03-03T04:59:54;34.85;;;16.58;;
57111;SDS011;42992;49.084;19.300;2023-03-03T05:02:20;32.53;;;16.73;;
57111;SDS011;42992;49.084;19.300;2023-03-03T05:04:46;33.53;;;16.77;;
57111;SDS011;42992;49.084;19.300;2023-03-03T05:07:12;30.75;;;15.70;;
57111;SDS011;42992;49.084;19.300;2023-03-03T05:09:37;33.42;;;16.08;;
57111;SDS011;42992;49.084;19.300;2023-03-03T05:12:02;35.53;;;16.75;;
57111;SDS011;42992;49.084;19.300;2023-03-03T05:14:28;31.10;;;15.77;;
57111;SDS011;42992;49.084;19.300;2023-03-03T05:16:53;37.83;;;16.70;;
57111;SDS011;42992;49.084;19.300;2023-03-03T05:19:18;41.13;;;16.35;;
57111;SDS011;42992;49.084;19.300;2023-03-03T05:21:43;31.48;;;15.75;;
57111;SDS011;42992;49.084;19.300;2023-03-03T05:24:09;43.58;;;15.32;;
57111;SDS011;42992;49.084;19.300;2023-03-03T05:26:35;38.75;;;16.58;;
57111;SDS011;42992;49.084;19.300;2023-03-03T05:29:00;31.98;;;15.80;;
57111;SDS011;42992;49.084;19.300;2023-03-03T05:31:25;37.10;;;15.27;;
57111;SDS011;42992;49.084;19.300;2023-03-03T05:33:51;30.58;;;15.77;;
57111;SDS011;42992;49.084;19.300;2023-03-03T05:36:17;36.30;;;16.35;;
57111;SDS011;42992;49.084;19.300;2023-03-03T05:38:42;32.25;;;17.10;;
57111;SDS011;42992;49.084;19.300;2023-03-03T05:41:07;31.65;;;15.27;;
57111;SDS011;42992;49.084;19.300;2023-03-03T05:43:32;35.45;;;15.65;;
57111;SDS011;42992;49.084;19.300;2023-03-03T05:45:58;35.08;;;15.82;;
57111;SDS011;42992;49.084;19.300;2023-03-03T05:48:23;31.23;;;16.40;;
57111;SDS011;42992;49.084;19.300;2023-03-03T05:50:48;33.75;;;16.55;;
57111;SDS011;42992;49.084;19.300;2023-03-03T05:53:13;29.10;;;14.25;;
57111;SDS011;42992;49.084;19.300;2023-03-03T05:55:39;37.97;;;16.15;;
57111;SDS011;42992;49.084;19.300;2023-03-03T05:58:06;38.08;;;15.15;;
57111;SDS011;42992;49.084;19.300;2023-03-03T06:00:31;31.52;;;14.60;;
57111;SDS011;42992;49.084;19.300;2023-03-03T06:02:57;35.08;;;15.43;;
57111;SDS011;42992;49.084;19.300;2023-03-03T06:05:22;25.55;;;13.68;;
57111;SDS011;42992;49.084;19.300;2023-03-03T06:07:47;33.85;;;14.43;;
57111;SDS011;42992;49.084;19.300;2023-03-03T06:10:13;27.17;;;12.55;;
57111;SDS011;42992;49.084;19.300;2023-03-03T06:12:38;26.55;;;13.10;;
57111;SDS011;42992;49.084;19.300;2023-03-03T06:15:06;27.60;;;13.15;;
57111;SDS011;42992;49.084;19.300;2023-03-03T06:17:31;26.40;;;12.93;;
57111;SDS011;42992;49.084;19.300;2023-03-03T06:19:57;36.05;;;13.75;;
57111;SDS011;42992;49.084;19.300;2023-03-03T06:22:22;22.58;;;12.93;;
57111;SDS011;42992;49.084;19.300;2023-03-03T06:24:47;29.92;;;14.18;;
57111;SDS011;42992;49.084;19.300;2023-03-03T06:27:12;26.35;;;12.52;;
57111;SDS011;42992;49.084;19.300;2023-03-03T06:29:38;28.63;;;14.10;;
57111;SDS011;42992;49.084;19.300;2023-03-03T06:32:03;32.83;;;16.20;;
57111;SDS011;42992;49.084;19.300;2023-03-03T06:34:28;39.22;;;17.15;;
57111;SDS011;42992;49.084;19.300;2023-03-03T06:36:54;41.83;;;19.25;;
57111;SDS011;42992;49.084;19.300;2023-03-03T06:39:20;48.83;;;21.05;;
57111;SDS011;42992;49.084;19.300;2023-03-03T06:41:46;51.30;;;22.73;;
57111;SDS011;42992;49.084;19.300;2023-03-03T06:44:11;55.40;;;23.17;;
57111;SDS011;42992;49.084;19.300;2023-03-03T06:46:37;44.83;;;19.77;;
57111;SDS011;42992;49.084;19.300;2023-03-03T06:49:02;44.60;;;19.45;;
57111;SDS011;42992;49.084;19.300;2023-03-03T06:51:34;32.63;;;16.15;;
57111;SDS011;42992;49.084;19.300;2023-03-03T06:54:10;43.13;;;18.55;;
57111;SDS011;42992;49.084;19.300;2023-03-03T06:56:36;44.50;;;20.50;;
57111;SDS011;42992;49.084;19.300;2023-03-03T06:59:04;45.63;;;19.52;;
57111;SDS011;42992;49.084;19.300;2023-03-03T07:01:33;40.45;;;20.45;;
57111;SDS011;42992;49.084;19.300;2023-03-03T07:03:59;43.47;;;20.05;;
57111;SDS011;42992;49.084;19.300;2023-03-03T07:06:25;42.40;;;18.17;;
57111;SDS011;42992;49.084;19.300;2023-03-03T07:08:52;52.85;;;21.65;;
57111;SDS011;42992;49.084;19.300;2023-03-03T07:11:21;35.88;;;14.73;;
57111;SDS011;42992;49.084;19.300;2023-03-03T07:13:47;31.95;;;16.10;;
57111;SDS011;42992;49.084;19.300;2023-03-03T07:16:16;35.97;;;16.33;;
57111;SDS011;42992;49.084;19.300;2023-03-03T07:18:52;37.72;;;15.15;;
57111;SDS011;42992;49.084;19.300;2023-03-03T07:23:43;36.03;;;16.27;;
57111;SDS011;42992;49.084;19.300;2023-03-03T07:26:12;39.72;;;16.45;;
57111;SDS011;42992;49.084;19.300;2023-03-03T07:28:43;35.30;;;17.67;;
57111;SDS011;42992;49.084;19.300;2023-03-03T07:33:46;44.17;;;18.70;;
57111;SDS011;42992;49.084;19.300;2023-03-03T07:36:33;42.80;;;18.00;;
57111;SDS011;42992;49.084;19.300;2023-03-03T07:39:00;38.45;;;17.73;;
57111;SDS011;42992;49.084;19.300;2023-03-03T07:41:25;46.92;;;19.77;;
57111;SDS011;42992;49.084;19.300;2023-03-03T07:43:52;39.55;;;17.08;;
57111;SDS011;42992;49.084;19.300;2023-03-03T07:48:52;38.22;;;17.88;;
57111;SDS011;42992;49.084;19.300;2023-03-03T07:51:22;32.38;;;16.20;;
57111;SDS011;42992;49.084;19.300;2023-03-03T07:53:49;29.95;;;15.95;;
57111;SDS011;42992;49.084;19.300;2023-03-03T07:56:20;27.73;;;14.98;;
57111;SDS011;42992;49.084;19.300;2023-03-03T07:58:46;34.80;;;16.00;;
57111;SDS011;42992;49.084;19.300;2023-03-03T08:03:49;31.70;;;16.45;;
57111;SDS011;42992;49.084;19.300;2023-03-03T08:11:33;29.15;;;15.98;;
57111;SDS011;42992;49.084;19.300;2023-03-03T08:13:59;32.20;;;16.65;;
57111;SDS011;42992;49.084;19.300;2023-03-03T08:16:35;34.13;;;17.30;;
57111;SDS011;42992;49.084;19.300;2023-03-03T08:19:01;33.67;;;17.13;;
57111;SDS011;42992;49.084;19.300;2023-03-03T08:21:27;38.42;;;17.27;;
57111;SDS011;42992;49.084;19.300;2023-03-03T08:23:53;39.65;;;17.85;;
57111;SDS011;42992;49.084;19.300;2023-03-03T08:26:19;26.15;;;16.23;;
57111;SDS011;42992;49.084;19.300;2023-03-03T08:28:45;32.42;;;17.27;;
57111;SDS011;42992;49.084;19.300;2023-03-03T08:31:10;33.92;;;18.90;;
57111;SDS011;42992;49.084;19.300;2023-03-03T08:33:36;33.70;;;17.88;;
57111;SDS011;42992;49.084;19.300;2023-03-03T08:36:01;37.55;;;18.73;;
57111;SDS011;42992;49.084;19.300;2023-03-03T08:38:27;40.63;;;19.35;;
57111;SDS011;42992;49.084;19.300;2023-03-03T08:40:52;33.88;;;18.35;;
57111;SDS011;42992;49.084;19.300;2023-03-03T08:43:18;43.58;;;19.35;;
57111;SDS011;42992;49.084;19.300;2023-03-03T08:45:48;35.08;;;17.23;;
57111;SDS011;42992;49.084;19.300;2023-03-03T08:48:14;36.42;;;18.50;;
57111;SDS011;42992;49.084;19.300;2023-03-03T08:50:39;32.10;;;17.65;;
57111;SDS011;42992;49.084;19.300;2023-03-03T08:53:05;36.65;;;18.60;;
57111;SDS011;42992;49.084;19.300;2023-03-03T08:55:30;76.65;;;19.38;;
57111;SDS011;42992;49.084;19.300;2023-03-03T08:57:55;44.80;;;18.45;;
57111;SDS011;42992;49.084;19.300;2023-03-03T09:00:21;36.78;;;17.92;;
57111;SDS011;42992;49.084;19.300;2023-03-03T09:02:46;33.35;;;17.20;;
57111;SDS011;42992;49.084;19.300;2023-03-03T09:05:13;34.47;;;16.58;;
57111;SDS011;42992;49.084;19.300;2023-03-03T09:07:39;33.92;;;17.83;;
57111;SDS011;42992;49.084;19.300;2023-03-03T09:10:04;42.53;;;19.42;;
57111;SDS011;42992;49.084;19.300;2023-03-03T09:12:35;38.88;;;17.88;;
57111;SDS011;42992;49.084;19.300;2023-03-03T09:15:12;37.08;;;18.02;;
57111;SDS011;42992;49.084;19.300;2023-03-03T09:17:41;48.03;;;18.73;;
57111;SDS011;42992;49.084;19.300;2023-03-03T09:22:46;41.63;;;20.02;;
57111;SDS011;42992;49.084;19.300;2023-03-03T09:27:46;44.20;;;20.08;;
57111;SDS011;42992;49.084;19.300;2023-03-03T09:32:43;37.03;;;19.25;;
57111;SDS011;42992;49.084;19.300;2023-03-03T09:35:32;34.30;;;17.45;;
57111;SDS011;42992;49.084;19.300;2023-03-03T09:38:09;33.13;;;17.92;;
57111;SDS011;42992;49.084;19.300;2023-03-03T09:40:45;36.47;;;18.88;;
57111;SDS011;42992;49.084;19.300;2023-03-03T09:45:56;31.85;;;16.80;;
57111;SDS011;42992;49.084;19.300;2023-03-03T09:48:41;37.33;;;16.40;;
57111;SDS011;42992;49.084;19.300;2023-03-03T09:51:31;28.35;;;15.82;;
57111;SDS011;42992;49.084;19.300;2023-03-03T09:56:43;34.83;;;16.42;;
57111;SDS011;42992;49.084;19.300;2023-03-03T10:02:00;30.77;;;14.52;;
57111;SDS011;42992;49.084;19.300;2023-03-03T10:04:40;26.17;;;14.30;;
57111;SDS011;42992;49.084;19.300;2023-03-03T10:10:20;31.33;;;14.82;;
57111;SDS011;42992;49.084;19.300;2023-03-03T10:25:17;23.45;;;14.38;;
57111;SDS011;42992;49.084;19.300;2023-03-03T10:27:52;30.50;;;15.52;;
57111;SDS011;42992;49.084;19.300;2023-03-03T10:33:00;26.75;;;14.43;;
57111;SDS011;42992;49.084;19.300;2023-03-03T10:56:40;21.77;;;13.23;;
57111;SDS011;42992;49.084;19.300;2023-03-03T10:59:28;21.55;;;12.50;;
57111;SDS011;42992;49.084;19.300;2023-03-03T11:01:57;22.77;;;12.55;;
57111;SDS011;42992;49.084;19.300;2023-03-03T11:04:27;23.95;;;13.23;;
57111;SDS011;42992;49.084;19.300;2023-03-03T11:07:01;25.00;;;12.43;;
57111;SDS011;42992;49.084;19.300;2023-03-03T11:14:35;24.98;;;11.40;;
57111;SDS011;42992;49.084;19.300;2023-03-03T11:35:21;22.40;;;8.70;;
57111;SDS011;42992;49.084;19.300;2023-03-03T11:40:16;14.30;;;7.22;;
57111;SDS011;42992;49.084;19.300;2023-03-03T11:42:51;16.35;;;6.78;;
57111;SDS011;42992;49.084;19.300;2023-03-03T11:45:21;16.60;;;7.75;;
57111;SDS011;42992;49.084;19.300;2023-03-03T11:53:31;13.60;;;6.35;;
57111;SDS011;42992;49.084;19.300;2023-03-03T12:00:53;12.93;;;7.20;;
57111;SDS011;42992;49.084;19.300;2023-03-03T12:03:29;14.88;;;7.53;;
57111;SDS011;42992;49.084;19.300;2023-03-03T12:09:00;15.27;;;7.68;;
57111;SDS011;42992;49.084;19.300;2023-03-03T12:11:42;14.05;;;7.63;;
57111;SDS011;42992;49.084;19.300;2023-03-03T12:29:59;14.73;;;8.05;;
57111;SDS011;42992;49.084;19.300;2023-03-03T12:37:35;16.90;;;8.77;;
57111;SDS011;42992;49.084;19.300;2023-03-03T12:40:09;14.63;;;7.68;;
57111;SDS011;42992;49.084;19.300;2023-03-03T12:47:48;19.23;;;9.52;;
57111;SDS011;42992;49.084;19.300;2023-03-03T13:10:34;13.77;;;8.07;;
57111;SDS011;42992;49.084;19.300;2023-03-03T13:13:02;15.35;;;7.85;;
57111;SDS011;42992;49.084;19.300;2023-03-03T13:15:34;15.90;;;8.48;;
57111;SDS011;42992;49.084;19.300;2023-03-03T13:20:44;16.10;;;7.75;;
57111;SDS011;42992;49.084;19.300;2023-03-03T13:26:19;14.68;;;8.43;;
57111;SDS011;42992;49.084;19.300;2023-03-03T13:31:19;18.45;;;9.40;;
57111;SDS011;42992;49.084;19.300;2023-03-03T13:33:49;13.75;;;8.68;;
57111;SDS011;42992;49.084;19.300;2023-03-03T13:36:17;18.13;;;9.15;;
57111;SDS011;42992;49.084;19.300;2023-03-03T13:38:47;24.40;;;8.60;;
57111;SDS011;42992;49.084;19.300;2023-03-03T13:46:13;17.05;;;8.93;;
57111;SDS011;42992;49.084;19.300;2023-03-03T13:51:36;16.45;;;7.60;;
57111;SDS011;42992;49.084;19.300;2023-03-03T13:54:21;14.75;;;8.35;;
57111;SDS011;42992;49.084;19.300;2023-03-03T13:57:11;17.23;;;8.45;;
57111;SDS011;42992;49.084;19.300;2023-03-03T14:02:23;14.25;;;7.57;;
57111;SDS011;42992;49.084;19.300;2023-03-03T14:04:58;21.40;;;8.50;;
57111;SDS011;42992;49.084;19.300;2023-03-03T14:07:27;19.90;;;8.95;;
57111;SDS011;42992;49.084;19.300;2023-03-03T14:10:06;14.32;;;8.80;;
57111;SDS011;42992;49.084;19.300;2023-03-03T14:15:21;19.67;;;10.63;;
57111;SDS011;42992;49.084;19.300;2023-03-03T14:20:35;19.52;;;8.95;;
57111;SDS011;42992;49.084;19.300;2023-03-03T14:25:55;17.38;;;9.45;;
57111;SDS011;42992;49.084;19.300;2023-03-03T14:28:22;14.80;;;9.77;;
57111;SDS011;42992;49.084;19.300;2023-03-03T14:30:50;17.10;;;9.80;;
57111;SDS011;42992;49.084;19.300;2023-03-03T14:33:19;19.30;;;10.02;;
57111;SDS011;42992;49.084;19.300;2023-03-03T14:35:50;19.48;;;9.25;;
57111;SDS011;42992;49.084;19.300;2023-03-03T14:38:18;21.33;;;9.23;;
57111;SDS011;42992;49.084;19.300;2023-03-03T14:40:46;21.85;;;9.50;;
57111;SDS011;42992;49.084;19.300;2023-03-03T14:43:22;19.70;;;9.85;;
57111;SDS011;42992;49.084;19.300;2023-03-03T14:45:48;17.55;;;10.20;;
57111;SDS011;42992;49.084;19.300;2023-03-03T14:48:16;19.70;;;10.30;;
57111;SDS011;42992;49.084;19.300;2023-03-03T14:50:47;15.18;;;9.25;;
57111;SDS011;42992;49.084;19.300;2023-03-03T14:53:19;18.75;;;10.48;;
57111;SDS011;42992;49.084;19.300;2023-03-03T14:55:49;17.80;;;10.48;;
57111;SDS011;42992;49.084;19.300;2023-03-03T15:01:11;20.38;;;11.60;;
57111;SDS011;42992;49.084;19.300;2023-03-03T15:03:42;21.27;;;11.27;;
57111;SDS011;42992;49.084;19.300;2023-03-03T15:06:12;23.33;;;12.52;;
57111;SDS011;42992;49.084;19.300;2023-03-03T15:08:51;27.15;;;12.38;;
57111;SDS011;42992;49.084;19.300;2023-03-03T15:11:31;21.13;;;12.38;;
57111;SDS011;42992;49.084;19.300;2023-03-03T15:14:09;23.40;;;13.93;;
57111;SDS011;42992;49.084;19.300;2023-03-03T15:16:36;25.95;;;15.10;;
57111;SDS011;42992;49.084;19.300;2023-03-03T15:21:57;26.65;;;15.82;;
57111;SDS011;42992;49.084;19.300;2023-03-03T15:24:27;29.20;;;16.05;;
57111;SDS011;42992;49.084;19.300;2023-03-03T15:26:58;27.88;;;15.98;;
57111;SDS011;42992;49.084;19.300;2023-03-03T15:29:43;30.83;;;17.15;;
57111;SDS011;42992;49.084;19.300;2023-03-03T15:32:17;29.27;;;16.67;;
57111;SDS011;42992;49.084;19.300;2023-03-03T15:37:40;32.03;;;16.92;;
57111;SDS011;42992;49.084;19.300;2023-03-03T15:40:27;32.22;;;18.83;;
57111;SDS011;42992;49.084;19.300;2023-03-03T15:43:05;33.72;;;17.65;;
57111;SDS011;42992;49.084;19.300;2023-03-03T15:45:41;39.22;;;18.77;;
57111;SDS011;42992;49.084;19.300;2023-03-03T15:48:19;34.72;;;19.17;;
57111;SDS011;42992;49.084;19.300;2023-03-03T15:55:47;64.20;;;20.33;;
57111;SDS011;42992;49.084;19.300;2023-03-03T15:58:35;38.80;;;18.25;;
57111;SDS011;42992;49.084;19.300;2023-03-03T16:01:14;32.55;;;17.88;;
57111;SDS011;42992;49.084;19.300;2023-03-03T16:03:44;35.30;;;17.40;;
57111;SDS011;42992;49.084;19.300;2023-03-03T16:13:50;30.70;;;17.42;;
57111;SDS011;42992;49.084;19.300;2023-03-03T16:27:05;32.50;;;19.13;;
57111;SDS011;42992;49.084;19.300;2023-03-03T16:29:45;32.33;;;16.85;;
57111;SDS011;42992;49.084;19.300;2023-03-03T16:32:33;30.50;;;17.85;;
57111;SDS011;42992;49.084;19.300;2023-03-03T16:37:35;32.63;;;18.95;;
57111;SDS011;42992;49.084;19.300;2023-03-03T16:40:12;35.65;;;19.73;;
57111;SDS011;42992;49.084;19.300;2023-03-03T16:42:38;37.63;;;19.65;;
57111;SDS011;42992;49.084;19.300;2023-03-03T16:45:19;35.42;;;18.90;;
57111;SDS011;42992;49.084;19.300;2023-03-03T16:55:30;30.80;;;16.83;;
57111;SDS011;42992;49.084;19.300;2023-03-03T17:00:28;34.05;;;17.08;;
57111;SDS011;42992;49.084;19.300;2023-03-03T17:08:11;34.67;;;19.05;;
57111;SDS011;42992;49.084;19.300;2023-03-03T17:10:47;38.17;;;18.02;;
57111;SDS011;42992;49.084;19.300;2023-03-03T17:20:49;34.50;;;19.00;;
57111;SDS011;42992;49.084;19.300;2023-03-03T17:23:22;37.60;;;19.45;;
57111;SDS011;42992;49.084;19.300;2023-03-03T17:33:21;45.15;;;20.63;;
57111;SDS011;42992;49.084;19.300;2023-03-03T17:35:58;49.45;;;22.85;;
57111;SDS011;42992;49.084;19.300;2023-03-03T17:44:01;38.55;;;18.92;;
57111;SDS011;42992;49.084;19.300;2023-03-03T17:46:35;40.53;;;20.98;;
57111;SDS011;42992;49.084;19.300;2023-03-03T17:51:56;34.25;;;19.23;;
57111;SDS011;42992;49.084;19.300;2023-03-03T18:10:04;48.75;;;23.95;;
57111;SDS011;42992;49.084;19.300;2023-03-03T18:13:39;41.78;;;22.83;;
57111;SDS011;42992;49.084;19.300;2023-03-03T18:25:59;51.00;;;25.55;;
57111;SDS011;42992;49.084;19.300;2023-03-03T18:28:45;46.75;;;24.90;;
57111;SDS011;42992;49.084;19.300;2023-03-03T18:31:24;46.80;;;25.38;;
57111;SDS011;42992;49.084;19.300;2023-03-03T18:34:50;51.70;;;22.02;;
57111;SDS011;42992;49.084;19.300;2023-03-03T18:36:52;48.88;;;22.00;;
57111;SDS011;42992;49.084;19.300;2023-03-03T18:39:33;45.17;;;22.70;;
57111;SDS011;42992;49.084;19.300;2023-03-03T18:42:07;50.17;;;21.95;;
57111;SDS011;42992;49.084;19.300;2023-03-03T18:44:33;42.38;;;21.55;;
57111;SDS011;42992;49.084;19.300;2023-03-03T18:46:58;43.90;;;21.98;;
57111;SDS011;42992;49.084;19.300;2023-03-03T18:49:46;42.13;;;21.45;;
57111;SDS011;42992;49.084;19.300;2023-03-03T18:52:28;40.03;;;20.60;;
57111;SDS011;42992;49.084;19.300;2023-03-03T18:54:59;44.22;;;20.75;;
57111;SDS011;42992;49.084;19.300;2023-03-03T18:57:25;43.60;;;21.23;;
57111;SDS011;42992;49.084;19.300;2023-03-03T18:59:57;44.40;;;22.23;;
57111;SDS011;42992;49.084;19.300;2023-03-03T19:02:36;46.50;;;21.85;;
57111;SDS011;42992;49.084;19.300;2023-03-03T19:05:14;45.28;;;21.48;;
57111;SDS011;42992;49.084;19.300;2023-03-03T19:07:51;40.45;;;20.48;;
57111;SDS011;42992;49.084;19.300;2023-03-03T19:12:52;45.70;;;22.05;;
57111;SDS011;42992;49.084;19.300;2023-03-03T19:18:04;49.15;;;23.73;;
57111;SDS011;42992;49.084;19.300;2023-03-03T19:20:42;47.90;;;24.17;;
57111;SDS011;42992;49.084;19.300;2023-03-03T19:23:12;46.70;;;25.13;;
57111;SDS011;42992;49.084;19.300;2023-03-03T19:25:38;55.97;;;25.10;;
57111;SDS011;42992;49.084;19.300;2023-03-03T19:31:00;59.47;;;27.00;;
57111;SDS011;42992;49.084;19.300;2023-03-03T19:33:38;56.78;;;27.67;;
57111;SDS011;42992;49.084;19.300;2023-03-03T19:41:38;56.80;;;27.40;;